Time;durP1;ratioP1;P1;durP2;ratioP2;P2;SDS_P1;SDS_P2;PMS_P1;PMS_P2;Temp;Humidity;BMP_temperature;BMP_pressure;BME280_temperature;BME280_humidity;BME280_pressure;Samples;Min_cycle;Max_cycle;Signal;HPM_P1;HPM_P2
2024/01/10 00:00:14;;;;;;;14.05;5.55;;;;;;;-3.83;100.00;102938.56;5267693;28;20085;-73
2024/01/10 00:02:44;;;;;;;18.60;6.57;;;;;;;-3.82;100.00;102940.28;5275874;28;20024;-73
2024/01/10 00:05:15;;;;;;;15.63;5.85;;;;;;;-3.87;100.00;102934.25;5266658;28;20489;-73
2024/01/10 00:07:45;;;;;;;14.88;5.88;;;;;;;-3.88;100.00;102929.91;5270326;28;20110;-72
2024/01/10 00:10:16;;;;;;;15.48;5.68;;;;;;;-3.93;100.00;102928.19;5268540;28;20030;-73
2024/01/10 00:12:47;;;;;;;16.55;6.35;;;;;;;-3.95;100.00;102930.00;5268521;28;20023;-70
2024/01/10 00:15:18;;;;;;;18.23;5.15;;;;;;;-3.99;100.00;102923.06;5268633;28;20035;-70
2024/01/10 00:17:48;;;;;;;17.65;5.13;;;;;;;-4.02;100.00;102923.09;5270321;28;20015;-72
2024/01/10 00:20:19;;;;;;;14.70;5.05;;;;;;;-4.09;100.00;102916.22;5266110;28;20558;-72
2024/01/10 00:22:49;;;;;;;19.50;6.43;;;;;;;-4.13;100.00;102909.28;5264163;28;20031;-72
2024/01/10 00:25:20;;;;;;;16.65;5.90;;;;;;;-4.15;100.00;102913.69;5266341;28;20486;-73
2024/01/10 00:27:50;;;;;;;19.63;6.32;;;;;;;-4.15;100.00;102907.56;5267098;28;20022;-72
2024/01/10 00:30:21;;;;;;;15.40;5.82;;;;;;;-4.20;100.00;102911.13;5265061;28;20047;-73
2024/01/10 00:32:51;;;;;;;20.80;6.30;;;;;;;-4.22;100.00;102902.41;5264809;28;20030;-72
2024/01/10 00:35:22;;;;;;;14.52;5.75;;;;;;;-4.25;100.00;102907.69;5265165;28;20031;-72
2024/01/10 00:37:53;;;;;;;14.23;5.03;;;;;;;-4.23;100.00;102907.66;5263589;28;20028;-72
2024/01/10 00:40:23;;;;;;;13.00;5.35;;;;;;;-4.27;100.00;102903.34;5264845;28;20767;-72
2024/01/10 00:42:54;;;;;;;17.95;6.47;;;;;;;-4.32;100.00;102898.16;5262353;28;20039;-72
2024/01/10 00:45:24;;;;;;;12.98;5.20;;;;;;;-4.36;100.00;102891.25;5272403;28;20528;-72
2024/01/10 00:47:55;;;;;;;13.98;5.32;;;;;;;-4.37;100.00;102891.25;5268538;28;20036;-72
2024/01/10 00:50:25;;;;;;;16.73;5.70;;;;;;;-4.39;100.00;102885.19;5266882;28;20030;-72
2024/01/10 00:52:56;;;;;;;16.08;6.53;;;;;;;-4.43;100.00;102886.97;5268118;28;20113;-72
2024/01/10 00:55:26;;;;;;;17.83;6.70;;;;;;;-4.43;100.00;102900.06;5270880;28;20027;-72
2024/01/10 00:57:57;;;;;;;18.30;5.82;;;;;;;-4.48;100.00;102902.75;5273413;28;20023;-72
2024/01/10 01:00:27;;;;;;;18.17;6.07;;;;;;;-4.48;100.00;102897.50;5267579;28;20565;-72
2024/01/10 01:02:58;;;;;;;17.05;5.88;;;;;;;-4.50;100.00;102904.53;5270812;28;20024;-72
2024/01/10 01:05:28;;;;;;;14.13;5.72;;;;;;;-4.50;100.00;102899.28;5264674;28;20055;-72
2024/01/10 01:07:59;;;;;;;15.35;5.93;;;;;;;-4.51;100.00;102900.19;5268174;28;20039;-72
2024/01/10 01:10:29;;;;;;;20.55;5.82;;;;;;;-4.53;100.00;102907.19;5266534;28;20024;-72
2024/01/10 01:12:59;;;;;;;16.85;5.90;;;;;;;-4.55;100.00;102911.59;5268650;28;20020;-72
2024/01/10 01:15:30;;;;;;;15.55;5.75;;;;;;;-4.57;100.00;102899.38;5270205;28;20077;-72
2024/01/10 01:18:00;;;;;;;18.40;6.63;;;;;;;-4.60;100.00;102891.56;5270697;28;20016;-72
2024/01/10 01:20:31;;;;;;;15.30;5.60;;;;;;;-4.65;100.00;102909.09;5270963;28;20107;-72
2024/01/10 01:23:01;;;;;;;17.77;6.15;;;;;;;-4.69;100.00;102908.25;5266538;28;20012;-72
2024/01/10 01:25:32;;;;;;;12.55;5.18;;;;;;;-4.73;100.00;102899.56;5267100;28;20106;-72
2024/01/10 01:28:03;;;;;;;14.73;5.38;;;;;;;-4.75;100.00;102903.09;5267393;28;20023;-72
2024/01/10 01:30:33;;;;;;;19.80;5.70;;;;;;;-4.78;100.00;102903.13;5267326;28;20081;-72
2024/01/10 01:33:05;;;;;;;16.33;6.43;;;;;;;-4.82;100.00;102909.28;5267756;28;20028;-72
2024/01/10 01:35:35;;;;;;;14.60;5.85;;;;;;;-4.85;100.00;102914.56;5268480;28;20040;-72
2024/01/10 01:38:06;;;;;;;16.65;6.85;;;;;;;-4.85;100.00;102919.81;5266802;28;20027;-72
2024/01/10 01:40:36;;;;;;;16.45;5.75;;;;;;;-4.88;100.00;102904.13;5268911;28;20039;-71
2024/01/10 01:43:22;;;;;;;13.48;5.53;;;;;;;-4.94;100.00;102912.91;5270962;28;20027;-72
2024/01/10 01:45:54;;;;;;;20.48;6.20;;;;;;;-4.98;100.00;102900.72;5270755;28;20027;-72
2024/01/10 01:48:25;;;;;;;19.02;6.38;;;;;;;-4.98;100.00;102906.81;5271833;28;20045;-72
2024/01/10 01:51:00;;;;;;;16.27;7.20;;;;;;;-4.99;100.00;102910.34;5267792;28;20028;-72
2024/01/10 01:53:30;;;;;;;14.15;5.97;;;;;;;-5.01;100.00;102903.41;5269402;28;20024;-71
2024/01/10 01:56:05;;;;;;;13.10;5.45;;;;;;;-5.02;100.00;102899.91;5271550;27;20024;-72
2024/01/10 01:58:37;;;;;;;15.70;5.53;;;;;;;-5.02;100.00;102906.88;5269559;28;20024;-72
2024/01/10 02:01:10;;;;;;;16.08;5.57;;;;;;;-5.04;100.00;102906.91;5271020;28;20115;-72
2024/01/10 02:03:40;;;;;;;20.92;6.18;;;;;;;-5.05;100.00;102909.53;5267334;28;20043;-72
2024/01/10 02:06:11;;;;;;;18.85;5.85;;;;;;;-5.07;100.00;102906.94;5270191;28;20030;-72
2024/01/10 02:08:42;;;;;;;16.13;6.13;;;;;;;-5.08;100.00;102909.56;5271088;28;20038;-72
2024/01/10 02:11:13;;;;;;;17.98;6.03;;;;;;;-5.09;100.00;102907.84;5271619;28;20020;-72
2024/01/10 02:13:43;;;;;;;13.50;5.65;;;;;;;-5.07;100.00;102909.56;5269216;28;20402;-71
2024/01/10 02:16:14;;;;;;;17.13;5.90;;;;;;;-5.06;100.00;102911.28;5267569;28;20028;-72
2024/01/10 02:18:45;;;;;;;16.20;5.90;;;;;;;-5.04;100.00;102898.19;5269245;28;20401;-72
2024/01/10 02:21:34;;;;;;;17.98;6.05;;;;;;;-5.03;100.00;102898.16;5270231;28;20085;-72
2024/01/10 02:24:15;;;;;;;16.27;6.05;;;;;;;-5.05;100.00;102885.97;5264798;28;20024;-72
2024/01/10 02:26:59;;;;;;;19.52;7.78;;;;;;;-5.06;100.00;102900.81;5268984;28;20028;-72
2024/01/10 02:29:46;;;;;;;17.02;6.03;;;;;;;-5.08;100.00;102902.56;5269174;28;20658;-71
2024/01/10 02:32:33;;;;;;;15.32;6.07;;;;;;;-5.12;100.00;102898.28;5267752;28;20118;-72
2024/01/10 02:35:08;;;;;;;16.05;6.30;;;;;;;-5.16;100.00;102893.97;5269384;28;20024;-72
2024/01/10 02:37:51;;;;;;;20.42;6.15;;;;;;;-5.20;100.00;102894.88;5267893;28;20470;-71
2024/01/10 02:40:21;;;;;;;15.07;5.60;;;;;;;-5.22;100.00;102886.19;5269017;28;20028;-72
2024/01/10 02:42:52;;;;;;;15.52;6.15;;;;;;;-5.27;100.00;102885.31;5264921;28;20032;-72
2024/01/10 02:45:22;;;;;;;19.35;6.43;;;;;;;-5.28;100.00;102871.38;5269498;28;20109;-72
2024/01/10 02:47:53;;;;;;;15.88;6.47;;;;;;;-5.28;100.00;102883.59;5269321;28;20031;-72
2024/01/10 02:50:23;;;;;;;21.40;7.20;;;;;;;-5.30;100.00;102880.13;5266440;28;20051;-72
2024/01/10 02:52:54;;;;;;;20.20;5.72;;;;;;;-5.31;100.00;102875.78;5268320;28;20028;-72
2024/01/10 02:55:24;;;;;;;16.80;5.75;;;;;;;-5.31;100.00;102884.50;5269648;28;20032;-72
2024/01/10 02:57:55;;;;;;;15.13;6.35;;;;;;;-5.33;100.00;102875.78;5265323;28;20031;-71
2024/01/10 03:00:26;;;;;;;22.38;6.43;;;;;;;-5.33;100.00;102874.91;5268395;28;20557;-71
2024/01/10 03:02:56;;;;;;;16.73;6.43;;;;;;;-5.33;100.00;102881.03;5270271;27;20035;-71
2024/01/10 03:05:27;;;;;;;18.92;6.05;;;;;;;-5.31;100.00;102873.19;5267492;28;20053;-71
2024/01/10 03:07:57;;;;;;;17.65;6.00;;;;;;;-5.32;100.00;102874.94;5268515;28;20054;-71
2024/01/10 03:10:28;;;;;;;15.73;6.38;;;;;;;-5.34;100.00;102867.97;5269829;28;20028;-71
2024/01/10 03:12:59;;;;;;;20.23;6.50;;;;;;;-5.33;100.00;102861.84;5265483;28;20039;-70
2024/01/10 03:15:31;;;;;;;17.20;6.40;;;;;;;-5.35;100.00;102866.22;5269276;28;20023;-70
2024/01/10 03:18:01;;;;;;;26.10;7.13;;;;;;;-5.35;100.00;102861.00;5267927;28;20032;-70
2024/01/10 03:20:32;;;;;;;20.50;6.88;;;;;;;-5.34;100.00;102854.88;5267883;28;20405;-71
2024/01/10 03:23:03;;;;;;;19.08;6.55;;;;;;;-5.34;100.00;102844.41;5268235;28;20020;-70
2024/01/10 03:25:33;;;;;;;17.83;5.50;;;;;;;-5.35;100.00;102847.91;5268214;28;20103;-71
2024/01/10 03:28:04;;;;;;;15.98;6.10;;;;;;;-5.35;100.00;102847.91;5267873;28;20024;-71
2024/01/10 03:30:35;;;;;;;16.02;5.53;;;;;;;-5.34;100.00;102849.66;5268091;28;20054;-70
2024/01/10 03:33:05;;;;;;;23.92;6.82;;;;;;;-5.32;100.00;102847.88;5264552;28;20031;-70
2024/01/10 03:35:35;;;;;;;17.95;6.15;;;;;;;-5.33;100.00;102838.28;5267357;28;20074;-70
2024/01/10 03:38:06;;;;;;;19.08;5.53;;;;;;;-5.34;100.00;102839.19;5268097;27;20028;-70
2024/01/10 03:40:37;;;;;;;15.57;6.22;;;;;;;-5.38;100.00;102833.09;5269566;28;20020;-70
2024/01/10 03:43:10;;;;;;;15.35;5.70;;;;;;;-5.37;100.00;102829.63;5266679;28;20164;-70
2024/01/10 03:45:40;;;;;;;16.65;5.80;;;;;;;-5.41;100.00;102834.91;5269260;28;20024;-70
2024/01/10 03:48:11;;;;;;;14.07;5.60;;;;;;;-5.43;100.00;102841.88;5268612;28;20023;-70
2024/01/10 03:50:41;;;;;;;19.13;7.15;;;;;;;-5.46;100.00;102845.41;5270893;28;20385;-70
2024/01/10 03:53:12;;;;;;;17.02;5.88;;;;;;;-5.42;100.00;102835.75;5267949;28;20389;-70
2024/01/10 03:55:42;;;;;;;14.55;6.18;;;;;;;-5.40;100.00;102824.41;5266322;28;20032;-71
2024/01/10 03:58:13;;;;;;;18.88;6.10;;;;;;;-5.36;100.00;102822.66;5264281;28;20028;-70
2024/01/10 04:00:43;;;;;;;17.88;6.55;;;;;;;-5.39;100.00;102815.69;5267274;28;20357;-70
2024/01/10 04:03:14;;;;;;;16.00;5.72;;;;;;;-5.40;100.00;102824.41;5267933;28;20076;-70
2024/01/10 04:05:44;;;;;;;14.65;5.57;;;;;;;-5.36;100.00;102833.97;5267574;28;20020;-70
2024/01/10 04:08:15;;;;;;;16.83;5.97;;;;;;;-5.31;100.00;102831.31;5268749;28;20027;-70
2024/01/10 04:10:45;;;;;;;18.25;6.15;;;;;;;-5.29;100.00;102827.78;5268766;28;20045;-70
2024/01/10 04:13:16;;;;;;;18.17;5.50;;;;;;;-5.30;100.00;102819.97;5266751;28;20067;-71
2024/01/10 04:15:47;;;;;;;18.33;6.50;;;;;;;-5.28;100.00;102823.41;5270049;28;20389;-71
2024/01/10 04:18:17;;;;;;;16.38;5.72;;;;;;;-5.27;100.00;102812.06;5265722;28;20131;-71
2024/01/10 04:20:49;;;;;;;19.30;6.38;;;;;;;-5.27;100.00;102812.06;5268499;28;20028;-71
2024/01/10 04:23:19;;;;;;;20.95;6.60;;;;;;;-5.24;100.00;102810.28;5268534;28;20028;-71
2024/01/10 04:25:50;;;;;;;16.40;5.63;;;;;;;-5.26;100.00;102821.66;5268608;28;20027;-71
2024/01/10 04:28:20;;;;;;;17.27;5.90;;;;;;;-5.23;100.00;102821.63;5269428;28;20552;-70
2024/01/10 04:30:51;;;;;;;15.48;5.90;;;;;;;-5.21;100.00;102812.00;5267386;28;20027;-71
2024/01/10 04:33:21;;;;;;;15.23;5.15;;;;;;;-5.20;100.00;102826.81;5267881;28;20059;-73
2024/01/10 04:35:52;;;;;;;10.93;5.40;;;;;;;-5.17;100.00;102816.34;5269364;28;20546;-73
2024/01/10 04:38:26;;;;;;;16.92;6.07;;;;;;;-5.16;100.00;102812.81;5268304;28;20027;-72
2024/01/10 04:40:56;;;;;;;15.85;6.65;;;;;;;-5.21;100.00;102812.00;5268212;27;20019;-73
2024/01/10 04:43:26;;;;;;;15.80;5.18;;;;;;;-5.19;100.00;102810.22;5268539;28;20073;-72
2024/01/10 04:45:57;;;;;;;13.77;5.63;;;;;;;-5.21;100.00;102798.94;5271148;28;20016;-72
2024/01/10 04:48:28;;;;;;;16.08;5.05;;;;;;;-5.24;100.00;102805.06;5268777;28;20024;-72
2024/01/10 04:50:58;;;;;;;12.90;5.05;;;;;;;-5.23;100.00;102811.16;5267217;28;20211;-72
2024/01/10 04:53:28;;;;;;;15.55;5.43;;;;;;;-5.25;100.00;102810.31;5269250;28;20393;-72
2024/01/10 04:55:59;;;;;;;16.10;5.35;;;;;;;-5.25;100.00;102812.94;5265920;28;20062;-73
2024/01/10 04:58:30;;;;;;;12.10;4.82;;;;;;;-5.28;100.00;102813.81;5273457;28;20020;-73
2024/01/10 05:01:00;;;;;;;14.90;5.75;;;;;;;-5.23;100.00;102811.16;5268243;28;20024;-73
2024/01/10 05:03:31;;;;;;;15.30;5.50;;;;;;;-5.21;100.00;102804.16;5270730;28;20032;-72
2024/01/10 05:06:01;;;;;;;15.60;5.60;;;;;;;-5.19;100.00;102810.22;5268857;28;20477;-72
2024/01/10 05:08:32;;;;;;;16.25;5.78;;;;;;;-5.18;100.00;102809.34;5271379;28;20084;-73
2024/01/10 05:11:02;;;;;;;15.88;5.38;;;;;;;-5.18;100.00;102809.34;5267698;28;20628;-72
2024/01/10 05:13:33;;;;;;;11.60;5.07;;;;;;;-5.17;100.00;102811.09;5268404;28;20032;-73
2024/01/10 05:16:03;;;;;;;12.73;5.22;;;;;;;-5.20;100.00;102813.75;5268143;28;20024;-72
2024/01/10 05:18:34;;;;;;;25.38;5.72;;;;;;;-5.21;100.00;102801.53;5268243;28;20446;-73
2024/01/10 05:21:05;;;;;;;19.55;5.75;;;;;;;-5.23;100.00;102795.44;5266289;28;20028;-73
2024/01/10 05:23:36;;;;;;;16.02;5.85;;;;;;;-5.23;100.00;102804.16;5268910;28;20105;-73
2024/01/10 05:26:07;;;;;;;18.10;5.65;;;;;;;-5.25;100.00;102802.47;5266357;28;20497;-73
2024/01/10 05:28:37;;;;;;;15.35;5.72;;;;;;;-5.26;100.00;102800.72;5269202;28;20066;-73
2024/01/10 05:31:08;;;;;;;14.57;5.65;;;;;;;-5.24;100.00;102796.34;5270224;28;20020;-72
2024/01/10 05:33:38;;;;;;;17.88;5.53;;;;;;;-5.22;100.00;102807.66;5269737;28;20093;-73
2024/01/10 05:36:15;;;;;;;18.55;6.45;;;;;;;-5.22;100.00;102800.69;5271546;28;20695;-73
2024/01/10 05:38:46;;;;;;;16.20;5.32;;;;;;;-5.21;100.00;102809.41;5270659;28;20530;-73
2024/01/10 05:41:16;;;;;;;15.68;5.53;;;;;;;-5.20;100.00;102803.28;5271081;28;20032;-72
2024/01/10 05:43:47;;;;;;;15.75;5.32;;;;;;;-5.18;100.00;102801.50;5269039;28;20413;-73
2024/01/10 05:46:19;;;;;;;16.30;6.30;;;;;;;-5.18;100.00;102795.41;5269120;28;20091;-72
2024/01/10 05:48:50;;;;;;;14.30;5.78;;;;;;;-5.23;100.00;102804.16;5273188;28;20028;-72
2024/01/10 05:51:21;;;;;;;16.35;5.55;;;;;;;-5.23;100.00;102805.91;5268598;28;20062;-73
2024/01/10 05:53:52;;;;;;;13.88;5.65;;;;;;;-5.24;100.00;102802.44;5273308;27;20019;-73
2024/01/10 05:56:23;;;;;;;11.57;4.85;;;;;;;-5.22;100.00;102803.31;5271473;28;20036;-73
2024/01/10 05:58:53;;;;;;;19.52;5.57;;;;;;;-5.24;100.00;102806.81;5275236;28;20028;-73
2024/01/10 06:01:24;;;;;;;15.88;4.82;;;;;;;-5.27;100.00;102799.88;5269719;28;20028;-72
2024/01/10 06:03:54;;;;;;;15.82;5.40;;;;;;;-5.29;100.00;102799.00;5271596;28;20055;-72
2024/01/10 06:06:25;;;;;;;19.60;6.05;;;;;;;-5.34;100.00;102803.41;5270604;28;20495;-73
2024/01/10 06:08:55;;;;;;;13.02;5.25;;;;;;;-5.35;100.00;102800.81;5272516;28;20036;-73
2024/01/10 06:11:26;;;;;;;14.32;5.53;;;;;;;-5.39;100.00;102794.75;5271207;28;20051;-73
2024/01/10 06:13:57;;;;;;;14.68;5.82;;;;;;;-5.40;100.00;102800.00;5270766;28;20128;-73
2024/01/10 06:16:28;;;;;;;15.02;5.63;;;;;;;-5.45;100.00;102802.69;5271446;28;20103;-73
2024/01/10 06:18:58;;;;;;;21.65;6.30;;;;;;;-5.50;100.00;102802.72;5270893;28;20043;-73
2024/01/10 06:21:29;;;;;;;13.32;5.30;;;;;;;-5.53;100.00;102815.81;5270929;28;20028;-73
2024/01/10 06:23:59;;;;;;;15.73;6.18;;;;;;;-5.53;100.00;102805.34;5271106;28;20062;-73
2024/01/10 06:26:30;;;;;;;19.00;6.07;;;;;;;-5.52;100.00;102806.25;5271621;28;20024;-73
2024/01/10 06:29:00;;;;;;;19.25;6.55;;;;;;;-5.56;100.00;102801.94;5271759;28;20028;-73
2024/01/10 06:31:31;;;;;;;15.57;6.05;;;;;;;-5.60;100.00;102805.44;5270484;28;20082;-73
2024/01/10 06:34:01;;;;;;;21.08;6.70;;;;;;;-5.63;100.00;102805.47;5272379;27;20579;-73
2024/01/10 06:36:32;;;;;;;19.48;7.53;;;;;;;-5.64;100.00;102799.38;5272722;28;20508;-73
2024/01/10 06:39:02;;;;;;;19.73;7.53;;;;;;;-5.63;100.00;102801.09;5276291;28;20028;-73
2024/01/10 06:41:33;;;;;;;20.98;7.25;;;;;;;-5.61;100.00;102807.19;5270258;28;20412;-73
2024/01/10 06:44:04;;;;;;;17.95;6.35;;;;;;;-5.57;100.00;102805.41;5280101;28;20477;-73
2024/01/10 06:46:34;;;;;;;17.13;6.35;;;;;;;-5.58;100.00;102795.81;5277705;28;20345;-73
2024/01/10 06:49:07;;;;;;;17.30;5.90;;;;;;;-5.57;100.00;102790.59;5272431;28;20027;-73
2024/01/10 06:51:37;;;;;;;18.85;5.82;;;;;;;-5.56;100.00;102797.56;5277928;28;20036;-73
2024/01/10 06:54:08;;;;;;;14.32;6.18;;;;;;;-5.55;100.00;102798.41;5281018;27;20024;-73
2024/01/10 06:56:39;;;;;;;19.33;6.18;;;;;;;-5.55;100.00;102791.44;5274886;28;20040;-73
2024/01/10 06:59:09;;;;;;;16.15;6.32;;;;;;;-5.51;100.00;102790.53;5276268;28;20032;-73
2024/01/10 07:01:40;;;;;;;23.63;6.10;;;;;;;-5.52;100.00;102791.41;5278258;28;20036;-72
2024/01/10 07:04:11;;;;;;;23.83;5.85;;;;;;;-5.50;100.00;102787.03;5273390;28;20058;-73
2024/01/10 07:06:41;;;;;;;17.80;5.70;;;;;;;-5.50;100.00;102784.41;5277425;28;20032;-73
2024/01/10 07:09:12;;;;;;;18.40;6.45;;;;;;;-5.51;100.00;102790.53;5277144;28;20028;-73
2024/01/10 07:11:42;;;;;;;12.90;5.78;;;;;;;-5.48;100.00;102795.72;5268273;28;20028;-73
2024/01/10 07:14:14;;;;;;;20.50;6.40;;;;;;;-5.44;100.00;102787.84;5272268;28;20064;-73
2024/01/10 07:16:45;;;;;;;19.88;6.82;;;;;;;-5.45;100.00;102784.38;5272114;28;20400;-73
2024/01/10 07:19:16;;;;;;;18.38;5.85;;;;;;;-5.45;100.00;102791.34;5272450;28;20020;-73
2024/01/10 07:21:46;;;;;;;14.82;5.70;;;;;;;-5.44;100.00;102801.78;5273433;28;20053;-73
2024/01/10 07:24:17;;;;;;;16.88;6.53;;;;;;;-5.43;100.00;102795.66;5275593;28;20038;-73
2024/01/10 07:26:47;;;;;;;18.02;6.28;;;;;;;-5.42;100.00;102801.75;5277629;28;20418;-73
2024/01/10 07:29:19;;;;;;;21.50;6.32;;;;;;;-5.43;100.00;102803.50;5276100;28;20077;-73
2024/01/10 07:31:52;;;;;;;17.70;5.93;;;;;;;-5.43;100.00;102798.28;5281057;28;20027;-72
2024/01/10 07:34:23;;;;;;;27.25;6.63;;;;;;;-5.42;100.00;102807.00;5276027;28;20032;-73
2024/01/10 07:36:54;;;;;;;19.08;6.47;;;;;;;-5.39;100.00;102814.81;5275547;28;20378;-73
2024/01/10 07:39:24;;;;;;;21.85;7.05;;;;;;;-5.37;100.00;102815.66;5279276;28;20499;-73
2024/01/10 07:41:55;;;;;;;18.02;6.40;;;;;;;-5.39;100.00;102813.06;5276528;28;20031;-73
2024/01/10 07:44:26;;;;;;;17.15;6.20;;;;;;;-5.37;100.00;102824.41;5278067;28;20508;-73
2024/01/10 07:46:56;;;;;;;22.33;6.88;;;;;;;-5.35;100.00;102825.25;5280144;28;20023;-73
2024/01/10 07:49:28;;;;;;;14.68;6.32;;;;;;;-5.38;100.00;102825.25;5274925;28;20030;-72
2024/01/10 07:51:58;;;;;;;18.83;6.35;;;;;;;-5.38;100.00;102817.41;5266571;28;20048;-73
2024/01/10 07:54:31;;;;;;;17.23;6.53;;;;;;;-5.36;100.00;102823.50;5262009;28;20070;-73
2024/01/10 07:57:02;;;;;;;19.90;6.07;;;;;;;-5.35;100.00;102827.84;5270702;28;20016;-73
2024/01/10 07:59:34;;;;;;;16.33;6.55;;;;;;;-5.34;100.00;102823.47;5265621;28;20032;-73
2024/01/10 08:02:05;;;;;;;16.92;6.28;;;;;;;-5.31;100.00;102820.84;5275430;28;20031;-73
2024/01/10 08:04:36;;;;;;;21.75;6.88;;;;;;;-5.29;100.00;102812.09;5275177;28;20039;-74
2024/01/10 08:07:07;;;;;;;19.70;6.50;;;;;;;-5.24;100.00;102825.13;5274752;28;20015;-73
2024/01/10 08:09:38;;;;;;;20.25;6.07;;;;;;;-5.22;100.00;102828.59;5282561;28;20577;-73
2024/01/10 08:12:11;;;;;;;18.40;6.93;;;;;;;-5.16;100.00;102830.28;5276122;28;20020;-73
2024/01/10 08:14:45;;;;;;;25.50;8.90;;;;;;;-5.15;100.00;102830.25;5279688;27;20024;-73
2024/01/10 08:17:16;;;;;;;19.90;6.93;;;;;;;-5.06;100.00;102829.28;5273675;28;20032;-73
2024/01/10 08:19:47;;;;;;;20.58;6.93;;;;;;;-4.97;100.00;102821.31;5271868;28;20036;-73
2024/01/10 08:22:19;;;;;;;15.85;6.75;;;;;;;-4.82;100.00;102813.28;5272856;28;20028;-73
2024/01/10 08:24:50;;;;;;;17.75;6.78;;;;;;;-4.68;100.00;102816.56;5274403;28;20072;-74
2024/01/10 08:27:21;;;;;;;22.40;6.75;;;;;;;-4.54;100.00;102812.91;5279541;28;20799;-73
2024/01/10 08:29:52;;;;;;;18.75;6.95;;;;;;;-4.49;100.00;102821.56;5276250;28;20031;-73
2024/01/10 08:32:23;;;;;;;25.50;7.72;;;;;;;-4.35;100.00;102814.38;5277857;28;20420;-74
2024/01/10 08:34:53;;;;;;;16.90;6.60;;;;;;;-4.24;100.00;102812.44;5272754;28;20039;-74
2024/01/10 08:37:23;;;;;;;19.55;7.68;;;;;;;-4.05;100.00;102814.78;5274510;28;20020;-73
2024/01/10 08:39:54;;;;;;;22.35;8.00;;;;;;;-3.77;100.00;102816.03;5269359;28;20103;-73
2024/01/10 08:42:25;;;;;;;28.00;8.70;;;;;;;-3.57;100.00;102818.31;5267223;28;20031;-73
2024/01/10 08:44:55;;;;;;;26.95;9.13;;;;;;;-3.35;100.00;102826.69;5276801;28;20024;-73
2024/01/10 08:47:26;;;;;;;26.17;7.97;;;;;;;-3.20;100.00;102809.78;5271441;28;20035;-74
2024/01/10 08:49:56;;;;;;;28.48;8.65;;;;;;;-3.01;100.00;102816.41;5272129;28;20016;-73
2024/01/10 08:52:27;;;;;;;64.45;12.30;;;;;;;-2.90;100.00;102818.78;5275952;28;20028;-74
2024/01/10 08:54:57;;;;;;;108.80;19.05;;;;;;;-2.59;100.00;102819.00;5273032;28;20020;-74
2024/01/10 08:57:28;;;;;;;88.07;12.50;;;;;;;-2.33;100.00;102815.78;5266655;28;20470;-74
2024/01/10 08:59:59;;;;;;;23.90;9.25;;;;;;;-2.03;100.00;102819.44;5280490;28;20036;-73
2024/01/10 09:02:30;;;;;;;24.50;7.65;;;;;;;-1.88;100.00;102826.09;5276612;28;20034;-73
2024/01/10 09:05:00;;;;;;;24.65;8.23;;;;;;;-1.65;100.00;102833.44;5269870;28;20031;-73
2024/01/10 09:07:31;;;;;;;20.50;7.50;;;;;;;-1.48;100.00;102836.47;5278301;28;20669;-74
2024/01/10 09:10:01;;;;;;;17.52;7.40;;;;;;;-1.43;100.00;102844.25;5278471;28;20036;-73
2024/01/10 09:12:32;;;;;;;21.83;7.78;;;;;;;-1.26;100.00;102838.53;5273585;28;20030;-74
2024/01/10 09:15:03;;;;;;;17.98;7.22;;;;;;;-1.32;100.00;102835.16;5275286;27;20085;-74
2024/01/10 09:17:33;;;;;;;16.63;7.10;;;;;;;-1.26;100.00;102836.75;5279245;28;20032;-73
2024/01/10 09:20:04;;;;;;;17.95;7.25;;;;;;;-1.29;100.00;102841.28;5274538;28;20089;-74
2024/01/10 09:22:35;;;;;;;16.25;7.50;;;;;;;-1.30;100.00;102843.03;5277904;28;20409;-73
2024/01/10 09:25:06;;;;;;;19.23;7.93;;;;;;;-1.33;100.00;102837.84;5269859;28;20024;-74
2024/01/10 09:27:37;;;;;;;22.88;7.68;;;;;;;-1.38;100.00;102834.47;5276477;28;20024;-74
2024/01/10 09:30:09;;;;;;;20.42;7.75;;;;;;;-1.33;100.00;102843.13;5270309;28;20069;-73
2024/01/10 09:32:39;;;;;;;20.80;8.23;;;;;;;-1.28;100.00;102843.00;5273716;28;20036;-73
2024/01/10 09:35:10;;;;;;;19.25;7.85;;;;;;;-1.11;100.00;102838.97;5273096;28;20027;-74
2024/01/10 09:37:40;;;;;;;24.35;8.35;;;;;;;-1.16;100.00;102835.59;5274843;28;20024;-74
2024/01/10 09:40:14;;;;;;;20.38;8.50;;;;;;;-1.11;100.00;102838.13;5273896;28;20084;-74
2024/01/10 09:42:49;;;;;;;23.77;8.80;;;;;;;-1.02;100.00;102837.88;5277399;27;20090;-74
2024/01/10 09:45:22;;;;;;;17.35;7.10;;;;;;;-0.84;100.00;102826.81;5281194;28;20023;-73
2024/01/10 09:47:56;;;;;;;19.45;8.00;;;;;;;-0.81;100.00;102825.84;5276220;28;20035;-73
2024/01/10 09:50:27;;;;;;;23.10;8.55;;;;;;;-0.80;100.00;102833.72;5281397;28;20047;-73
2024/01/10 09:53:06;;;;;;;20.20;8.02;;;;;;;-0.84;100.00;102844.41;5271822;28;20035;-73
2024/01/10 09:55:37;;;;;;;20.52;9.52;;;;;;;-0.80;100.00;102836.34;5281073;28;20020;-73
2024/01/10 09:58:10;;;;;;;20.23;7.95;;;;;;;-0.88;100.00;102837.47;5267285;28;20040;-73
2024/01/10 10:00:41;;;;;;;27.85;12.02;;;;;;;-0.99;100.00;102837.78;5277627;28;20031;-73
2024/01/10 10:03:12;;;;;;;20.27;8.82;;;;;;;-0.92;100.00;102841.97;5271444;28;20043;-71
2024/01/10 10:05:43;;;;;;;17.75;7.65;;;;;;;-0.91;100.00;102824.38;5266594;28;20035;-71
2024/01/10 10:08:15;;;;;;;23.42;8.75;;;;;;;-0.86;100.00;102822.47;5281998;28;20080;-71
2024/01/10 10:10:46;;;;;;;21.88;7.40;;;;;;;-0.76;100.00;102823.06;5275012;28;20123;-71
2024/01/10 10:13:26;;;;;;;19.70;8.77;;;;;;;-0.76;100.00;102830.97;5276897;28;20122;-73
2024/01/10 10:16:00;;;;;;;23.77;8.50;;;;;;;-0.74;100.00;102840.59;5272788;28;20019;-73
2024/01/10 10:18:32;;;;;;;21.50;8.27;;;;;;;-0.61;100.00;102833.16;5278355;28;20032;-73
2024/01/10 10:21:13;;;;;;;22.80;9.13;;;;;;;-0.56;100.00;102836.53;5273018;28;20028;-73
2024/01/10 10:23:59;;;;;;;20.80;8.13;;;;;;;-0.69;100.00;102838.69;5268731;28;20065;-73
2024/01/10 10:26:32;;;;;;;22.73;7.82;;;;;;;-0.61;100.00;102841.94;5274374;28;20406;-73
2024/01/10 10:29:03;;;;;;;19.02;7.80;;;;;;;-0.55;100.00;102849.69;5275720;28;20061;-73
2024/01/10 10:31:35;;;;;;;20.67;7.70;;;;;;;-0.46;100.00;102848.53;5275856;28;20012;-73
2024/01/10 10:34:05;;;;;;;24.05;8.60;;;;;;;-0.35;100.00;102846.44;5270886;28;20034;-74
2024/01/10 10:36:36;;;;;;;20.70;8.35;;;;;;;-0.19;100.00;102844.19;5270626;28;20024;-74
2024/01/10 10:39:13;;;;;;;21.50;8.20;;;;;;;-0.16;100.00;102843.22;5276400;28;20032;-73
2024/01/10 10:41:47;;;;;;;22.30;8.68;;;;;;;-0.01;100.00;102829.53;5273042;28;20654;-73
2024/01/10 10:44:20;;;;;;;18.88;7.82;;;;;;;0.04;100.00;102832.88;5274129;28;20169;-73
2024/01/10 10:46:55;;;;;;;23.73;8.48;;;;;;;0.04;100.00;102838.16;5276266;28;20464;-74
2024/01/10 10:49:31;;;;;;;18.00;8.05;;;;;;;0.09;100.00;102832.72;5267768;28;20036;-74
2024/01/10 10:52:02;;;;;;;23.40;9.13;;;;;;;0.06;100.00;102833.72;5271726;28;20115;-73
2024/01/10 10:54:34;;;;;;;22.67;7.93;;;;;;;0.20;100.00;102830.59;5274320;28;20077;-74
2024/01/10 10:57:05;;;;;;;23.92;9.40;;;;;;;0.25;100.00;102832.19;5270384;28;20038;-74
2024/01/10 10:59:37;;;;;;;21.83;9.05;;;;;;;0.27;100.00;102826.84;5270002;28;20456;-74
2024/01/10 11:02:10;;;;;;;23.50;9.10;;;;;;;0.30;100.00;102826.72;5268351;28;20024;-74
2024/01/10 11:04:42;;;;;;;27.58;9.30;;;;;;;0.37;100.00;102836.19;5272713;28;20043;-74
2024/01/10 11:07:12;;;;;;;20.98;9.73;;;;;;;0.45;100.00;102838.53;5270006;28;20054;-74
2024/01/10 11:09:47;;;;;;;20.80;8.75;;;;;;;0.52;100.00;102832.16;5274820;28;20023;-74
2024/01/10 11:12:55;;;;;;;23.75;9.00;;;;;;;0.48;100.00;102825.25;5257542;28;20104;-74
2024/01/10 11:15:52;;;;;;;21.73;8.77;;;;;;;0.41;100.00;102819.31;5275381;28;20028;-74
2024/01/10 11:18:42;;;;;;;24.63;8.25;;;;;;;0.49;100.00;102814.63;5274789;28;20055;-74
2024/01/10 11:21:36;;;;;;;24.10;8.77;;;;;;;0.54;100.00;102805.69;5265413;28;20024;-74
2024/01/10 11:24:09;;;;;;;23.25;8.98;;;;;;;0.64;100.00;102796.53;5259000;28;20032;-73
2024/01/10 11:26:40;;;;;;;21.50;8.38;;;;;;;0.67;100.00;102799.91;5266028;28;20031;-74
2024/01/10 11:29:10;;;;;;;23.23;9.38;;;;;;;0.71;100.00;102798.03;5266815;28;20594;-74